Time;durP1;ratioP1;P1;durP2;ratioP2;P2;SDS_P1;SDS_P2;PMS_P1;PMS_P2;Temp;Humidity;BMP_temperature;BMP_pressure;BME280_temperature;BME280_humidity;BME280_pressure;Samples;Min_cycle;Max_cycle;Signal;HPM_P1;HPM_P2
2023/07/21 00:00:37;;;;;;;6.78;5.72;;;;;;;13.43;95.25;101176.56;5026665;28;20049;-76
2023/07/21 00:03:05;;;;;;;7.57;5.93;;;;;;;13.41;95.61;101181.97;4979057;28;20034;-76
2023/07/21 00:05:33;;;;;;;7.55;6.35;;;;;;;13.36;96.15;101178.84;5011207;28;20030;-76
2023/07/21 00:07:59;;;;;;;6.40;5.80;;;;;;;13.36;96.33;101173.56;5011462;28;20038;-77
2023/07/21 00:10:24;;;;;;;6.32;5.72;;;;;;;13.35;96.25;101169.25;5009590;28;20486;-76
2023/07/21 00:12:50;;;;;;;6.45;5.90;;;;;;;13.28;96.66;101172.50;4990136;28;20029;-77
2023/07/21 00:15:18;;;;;;;6.78;6.03;;;;;;;13.24;96.51;101176.34;4975942;28;20471;-77
2023/07/21 00:17:47;;;;;;;10.10;6.45;;;;;;;13.23;96.98;101177.31;4993189;28;20367;-77
2023/07/21 00:20:35;;;;;;;7.25;6.47;;;;;;;13.21;97.27;101166.88;4989463;28;20025;-76
2023/07/21 00:23:00;;;;;;;6.45;5.85;;;;;;;13.22;97.25;101165.06;5004752;28;20038;-76
2023/07/21 00:25:29;;;;;;;6.68;5.78;;;;;;;13.19;97.52;101166.13;5010605;28;20084;-76
2023/07/21 00:27:58;;;;;;;6.68;6.07;;;;;;;13.17;97.69;101163.59;4982460;28;20158;-76
2023/07/21 00:30:24;;;;;;;7.95;6.38;;;;;;;13.16;98.08;101161.91;5010484;28;20072;-77
2023/07/21 00:32:49;;;;;;;8.43;6.18;;;;;;;13.17;98.35;101158.31;4988341;28;20027;-76
2023/07/21 00:35:15;;;;;;;7.68;6.85;;;;;;;13.11;98.51;101153.50;5011323;28;20022;-76
2023/07/21 00:37:41;;;;;;;7.97;7.22;;;;;;;13.15;98.40;101152.28;5013158;28;20478;-76
2023/07/21 00:40:18;;;;;;;9.73;7.57;;;;;;;13.11;99.08;101160.59;5011465;28;20033;-76
2023/07/21 00:42:45;;;;;;;7.63;6.70;;;;;;;13.11;98.78;101153.50;5012355;28;20128;-75
2023/07/21 00:45:14;;;;;;;7.30;6.70;;;;;;;13.14;98.71;101145.34;4997667;28;20447;-75
2023/07/21 00:47:40;;;;;;;7.95;7.15;;;;;;;13.11;98.97;101148.22;4992826;28;20390;-76
2023/07/21 00:50:07;;;;;;;7.68;6.82;;;;;;;13.10;99.41;101146.53;5001539;28;20026;-76
2023/07/21 00:52:33;;;;;;;8.05;7.35;;;;;;;13.10;99.79;101148.34;4994759;28;20030;-75
2023/07/21 00:54:59;;;;;;;7.47;6.88;;;;;;;13.12;99.38;101149.91;4990073;28;20037;-76
2023/07/21 00:57:25;;;;;;;8.57;7.75;;;;;;;13.08;99.38;101148.47;4980783;28;20022;-77
2023/07/21 00:59:50;;;;;;;8.27;7.57;;;;;;;13.05;99.52;101143.44;5010427;28;20029;-76
2023/07/21 01:02:16;;;;;;;8.57;7.88;;;;;;;13.06;99.47;101144.28;4994451;28;20052;-77
2023/07/21 01:04:44;;;;;;;8.93;8.15;;;;;;;13.08;99.93;101139.69;5022225;28;20489;-77
2023/07/21 01:07:10;;;;;;;8.32;7.63;;;;;;;13.03;100.00;101134.78;5030629;28;20052;-76
2023/07/21 01:09:38;;;;;;;8.98;8.07;;;;;;;12.98;100.00;101133.47;5030629;28;20021;-77
2023/07/21 01:12:06;;;;;;;8.55;7.82;;;;;;;13.00;100.00;101135.03;5029540;28;20397;-77
2023/07/21 01:14:33;;;;;;;9.75;8.63;;;;;;;12.96;100.00;101130.13;5013180;28;20032;-77
2023/07/21 01:17:01;;;;;;;9.07;8.10;;;;;;;12.98;99.75;101126.41;5028541;28;20152;-77
2023/07/21 01:19:28;;;;;;;8.55;7.40;;;;;;;12.95;99.57;101129.28;5008374;28;20428;-76
2023/07/21 01:22:10;;;;;;;9.10;7.78;;;;;;;12.94;99.56;101127.59;5013192;28;20033;-77
2023/07/21 01:24:44;;;;;;;8.93;7.95;;;;;;;12.89;99.90;101124.50;5027073;28;20037;-76
2023/07/21 01:27:12;;;;;;;8.30;7.60;;;;;;;12.87;100.00;101121.13;5031238;28;20029;-75
2023/07/21 01:29:41;;;;;;;8.77;7.88;;;;;;;12.86;100.00;101130.00;5031031;28;20167;-75
2023/07/21 01:32:12;;;;;;;8.95;7.60;;;;;;;12.85;99.78;101125.69;5012038;28;20095;-77
2023/07/21 01:34:39;;;;;;;9.40;7.78;;;;;;;12.82;99.88;101118.00;5025735;28;20018;-76
2023/07/21 01:37:08;;;;;;;8.80;8.00;;;;;;;12.79;100.00;101118.22;5030651;28;20025;-77
2023/07/21 01:39:35;;;;;;;9.13;8.13;;;;;;;12.77;100.00;101120.16;5031665;28;20025;-76
2023/07/21 01:42:01;;;;;;;8.63;7.93;;;;;;;12.74;100.00;101118.59;5030914;28;20029;-76
2023/07/21 01:44:26;;;;;;;8.38;7.65;;;;;;;12.71;100.00;101118.00;5030687;28;20108;-75
2023/07/21 01:46:53;;;;;;;8.68;7.95;;;;;;;12.67;100.00;101108.66;5031022;28;20485;-75
2023/07/21 01:49:19;;;;;;;8.60;7.80;;;;;;;12.67;100.00;101111.28;5028093;28;20028;-75
2023/07/21 01:51:48;;;;;;;8.38;7.63;;;;;;;12.63;100.00;101108.03;5013666;28;20034;-76
2023/07/21 01:54:24;;;;;;;9.38;7.70;;;;;;;12.58;100.00;101112.00;5012416;28;20562;-76
2023/07/21 01:56:57;;;;;;;8.32;7.63;;;;;;;12.52;100.00;101108.91;5016778;28;20084;-77
2023/07/21 01:59:24;;;;;;;;;;;;;;;12.72;98.32;101098.56;5027323;28;20021;-77
2023/07/21 02:01:54;;;;;;;8.70;7.90;;;;;;;12.50;99.67;101102.91;5015999;28;20337;-77
2023/07/21 02:04:20;;;;;;;8.98;8.18;;;;;;;12.47;100.00;101102.28;5013762;28;20029;-77
2023/07/21 02:06:47;;;;;;;11.60;8.20;;;;;;;12.44;100.00;101097.25;4981966;28;20084;-77
2023/07/21 02:09:12;;;;;;;8.55;7.85;;;;;;;12.41;100.00;101098.34;5003477;28;20037;-76
2023/07/21 02:11:38;;;;;;;9.23;7.75;;;;;;;12.41;100.00;101095.69;5009395;28;20466;-76
2023/07/21 02:14:03;;;;;;;8.57;7.75;;;;;;;12.39;100.00;101091.47;5010853;28;20030;-76
2023/07/21 02:16:28;;;;;;;8.18;7.47;;;;;;;12.34;100.00;101089.19;5010610;28;20549;-76
2023/07/21 02:18:55;;;;;;;7.93;7.22;;;;;;;12.38;100.00;101097.72;5008300;28;20030;-76
2023/07/21 02:21:20;;;;;;;8.23;7.57;;;;;;;12.29;100.00;101094.00;5007621;28;20060;-76
2023/07/21 02:23:46;;;;;;;8.30;7.57;;;;;;;12.27;100.00;101088.00;4984776;28;20058;-75
2023/07/21 02:26:11;;;;;;;8.70;7.90;;;;;;;12.27;100.00;101090.63;5000736;28;20112;-76
2023/07/21 02:28:36;;;;;;;8.13;7.43;;;;;;;12.27;100.00;101092.44;5008607;28;20118;-76
2023/07/21 02:31:03;;;;;;;8.60;7.60;;;;;;;12.22;100.00;101096.25;5010018;28;20026;-76
2023/07/21 02:33:33;;;;;;;10.00;8.00;;;;;;;12.16;100.00;101085.34;4975460;28;20085;-76
2023/07/21 02:36:00;;;;;;;8.77;8.02;;;;;;;12.13;100.00;101086.44;4985128;28;20033;-76
2023/07/21 02:38:27;;;;;;;8.35;7.53;;;;;;;12.14;100.00;101088.09;5008052;28;20084;-76
2023/07/21 02:40:52;;;;;;;8.40;7.60;;;;;;;12.09;100.00;101081.50;4994595;28;20442;-76
2023/07/21 02:43:23;;;;;;;8.13;7.35;;;;;;;12.10;100.00;101083.19;5004713;28;20021;-76
2023/07/21 02:45:52;;;;;;;8.00;7.30;;;;;;;12.03;100.00;101079.34;4986890;28;20055;-76
2023/07/21 02:48:18;;;;;;;9.85;7.60;;;;;;;12.04;100.00;101081.03;5008478;28;20048;-77
2023/07/21 02:50:48;;;;;;;8.32;7.63;;;;;;;12.04;100.00;101084.50;4989298;28;20091;-76
2023/07/21 02:53:15;;;;;;;8.50;7.70;;;;;;;12.00;100.00;101077.75;5006026;28;20042;-76
2023/07/21 02:55:44;;;;;;;8.35;7.50;;;;;;;12.00;100.00;101079.53;5003111;28;20097;-77
2023/07/21 02:58:12;;;;;;;7.60;7.00;;;;;;;12.01;100.00;101082.09;4994677;28;20061;-77
2023/07/21 03:00:38;;;;;;;7.82;7.22;;;;;;;11.98;100.00;101078.81;4998015;28;20041;-77
2023/07/21 03:03:04;;;;;;;7.80;7.10;;;;;;;11.98;100.00;101081.47;4992538;28;20379;-77
2023/07/21 03:05:29;;;;;;;7.32;6.70;;;;;;;11.93;100.00;101074.75;4991915;28;20042;-76
2023/07/21 03:07:56;;;;;;;7.85;7.15;;;;;;;11.93;100.00;101074.75;5009785;28;20025;-76
2023/07/21 03:10:21;;;;;;;8.23;7.43;;;;;;;11.92;100.00;101075.69;4987660;28;20023;-76
2023/07/21 03:12:47;;;;;;;7.85;7.25;;;;;;;11.88;100.00;101076.88;5000225;28;20050;-83
2023/07/21 03:15:12;;;;;;;7.53;6.93;;;;;;;11.86;100.00;101084.06;4977825;28;20040;-83
2023/07/21 03:17:37;;;;;;;7.72;6.93;;;;;;;11.85;100.00;101073.66;5010241;28;20022;-83
2023/07/21 03:20:11;;;;;;;12.48;6.80;;;;;;;11.75;100.00;101078.75;5009114;28;20033;-83
2023/07/21 03:22:37;;;;;;;7.68;6.97;;;;;;;11.70;100.00;101082.69;5009535;28;20057;-83
2023/07/21 03:25:06;;;;;;;7.75;7.13;;;;;;;11.72;100.00;101080.78;5008296;28;20441;-83
2023/07/21 03:27:32;;;;;;;8.82;7.95;;;;;;;11.69;100.00;101071.31;4990769;28;20088;-83
2023/07/21 03:29:58;;;;;;;10.40;7.68;;;;;;;11.66;100.00;101074.19;5002461;28;20141;-84
2023/07/21 03:32:23;;;;;;;8.38;7.68;;;;;;;11.63;100.00;101079.69;5002471;28;20032;-86
2023/07/21 03:34:49;;;;;;;8.90;8.10;;;;;;;11.58;100.00;101073.88;5008624;28;20041;-83
2023/07/21 03:37:17;;;;;;;9.18;7.90;;;;;;;11.58;100.00;101073.88;4981703;28;20034;-84
2023/07/21 03:39:45;;;;;;;11.55;7.55;;;;;;;11.53;100.00;101081.28;4998464;28;20031;-83
2023/07/21 03:42:10;;;;;;;8.60;7.80;;;;;;;11.51;100.00;101070.88;4984122;28;20625;-83
2023/07/21 03:44:36;;;;;;;8.35;7.57;;;;;;;11.52;100.00;101080.44;5008806;28;20037;-84
2023/07/21 03:47:02;;;;;;;8.27;7.57;;;;;;;11.48;100.00;101080.78;5008582;28;20069;-84
2023/07/21 03:49:27;;;;;;;7.93;7.22;;;;;;;11.46;100.00;101077.44;4991209;28;20112;-84
2023/07/21 03:51:53;;;;;;;9.02;8.13;;;;;;;11.46;100.00;101085.34;4990421;28;20036;-84
2023/07/21 03:54:18;;;;;;;8.38;7.68;;;;;;;11.48;100.00;101079.00;4992894;28;20026;-84
2023/07/21 03:56:44;;;;;;;8.20;7.55;;;;;;;11.45;100.00;101073.97;4985825;28;20128;-84
2023/07/21 03:59:09;;;;;;;8.30;7.57;;;;;;;11.44;100.00;101082.81;4991483;28;20026;-84
2023/07/21 04:01:35;;;;;;;9.23;8.48;;;;;;;11.42;100.00;101078.63;5005084;28;20056;-85
2023/07/21 04:04:00;;;;;;;8.80;8.05;;;;;;;11.40;100.00;101073.47;5011232;28;20021;-84
2023/07/21 04:06:25;;;;;;;9.23;8.40;;;;;;;11.40;100.00;101070.00;5010561;28;20037;-84
2023/07/21 04:08:51;;;;;;;9.50;8.68;;;;;;;11.39;100.00;101065.66;5007223;28;20037;-84
2023/07/21 04:11:17;;;;;;;9.80;9.00;;;;;;;11.42;100.00;101062.81;5013683;28;20022;-84
2023/07/21 04:13:42;;;;;;;11.43;10.43;;;;;;;11.43;100.00;101060.06;4992264;28;20036;-84
2023/07/21 04:16:09;;;;;;;10.73;9.68;;;;;;;11.46;100.00;101059.00;5016208;28;20050;-85
2023/07/21 04:18:38;;;;;;;11.35;10.35;;;;;;;11.47;100.00;101060.66;5011457;28;20017;-84
2023/07/21 04:21:04;;;;;;;11.48;10.40;;;;;;;11.52;100.00;101055.91;5028769;28;20044;-84
2023/07/21 04:23:29;;;;;;;11.65;10.65;;;;;;;11.55;100.00;101053.03;5021936;28;20409;-85
2023/07/21 04:25:55;;;;;;;11.95;10.95;;;;;;;11.53;100.00;101047.03;5026777;28;20033;-85
2023/07/21 04:28:21;;;;;;;12.93;11.57;;;;;;;11.58;100.00;101042.25;5011852;28;20051;-85
2023/07/21 04:30:47;;;;;;;13.10;12.00;;;;;;;11.64;100.00;101047.09;5029714;28;20020;-85
2023/07/21 04:33:13;;;;;;;13.48;12.27;;;;;;;11.82;100.00;101050.16;5010199;28;20029;-84
2023/07/21 04:35:45;;;;;;;14.23;12.77;;;;;;;12.07;100.00;101054.41;5032798;28;20025;-84
2023/07/21 04:38:10;;;;;;;13.88;12.60;;;;;;;12.33;100.00;101049.72;5031627;28;20056;-84
2023/07/21 04:40:36;;;;;;;13.48;12.18;;;;;;;12.43;100.00;101048.06;5028700;28;20441;-85
2023/07/21 04:43:01;;;;;;;12.77;11.57;;;;;;;12.75;99.21;101040.22;5031185;28;20079;-85
2023/07/21 04:45:26;;;;;;;13.18;12.07;;;;;;;12.62;98.50;101048.28;5030417;28;20144;-85
2023/07/21 04:47:53;;;;;;;12.68;11.57;;;;;;;12.59;98.52;101042.41;5022588;28;20140;-84
2023/07/21 04:50:18;;;;;;;13.70;12.50;;;;;;;12.51;99.09;101038.59;5014128;28;20120;-84
2023/07/21 04:52:44;;;;;;;14.60;13.20;;;;;;;12.45;99.98;101033.81;5032583;28;20128;-84
2023/07/21 04:55:10;;;;;;;14.27;13.00;;;;;;;12.50;100.00;101036.91;5008049;28;20044;-83
2023/07/21 04:57:35;;;;;;;15.60;14.18;;;;;;;12.47;100.00;101037.16;5022742;28;20108;-83
2023/07/21 05:00:01;;;;;;;15.15;13.75;;;;;;;12.47;100.00;101031.88;5001684;28;20528;-84
2023/07/21 05:02:28;;;;;;;15.73;14.02;;;;;;;12.52;100.00;101039.44;5026247;28;20148;-83
2023/07/21 05:04:54;;;;;;;15.38;14.07;;;;;;;12.55;100.00;101040.03;5031796;28;20033;-84
2023/07/21 05:07:20;;;;;;;15.70;14.30;;;;;;;12.60;100.00;101038.81;5028501;28;20025;-84
2023/07/21 05:09:45;;;;;;;16.40;15.00;;;;;;;12.65;100.00;101040.13;5030957;28;20025;-83
2023/07/21 05:12:11;;;;;;;18.00;16.48;;;;;;;12.66;100.00;101036.53;5027972;28;20068;-83
2023/07/21 05:14:37;;;;;;;17.38;15.98;;;;;;;12.65;100.00;101036.66;5032113;28;20088;-84
2023/07/21 05:17:02;;;;;;;17.90;16.17;;;;;;;12.64;100.00;101037.63;5029622;28;20021;-84
2023/07/21 05:19:28;;;;;;;18.10;16.52;;;;;;;12.77;100.00;101033.03;5031021;28;20036;-83
2023/07/21 05:21:55;;;;;;;17.38;15.68;;;;;;;12.82;100.00;101029.06;5010457;28;20018;-84
2023/07/21 05:24:22;;;;;;;16.73;15.25;;;;;;;12.85;100.00;101033.28;5030932;28;20075;-84
2023/07/21 05:26:48;;;;;;;16.88;15.43;;;;;;;12.95;100.00;101036.84;5014101;28;20060;-84
2023/07/21 05:29:14;;;;;;;17.58;15.90;;;;;;;13.03;100.00;101037.06;5020812;28;20021;-84
2023/07/21 05:31:39;;;;;;;17.42;15.68;;;;;;;13.11;100.00;101031.13;5012314;28;20394;-78
2023/07/21 05:34:07;;;;;;;16.90;15.50;;;;;;;13.17;100.00;101038.59;5012071;28;20018;-79
2023/07/21 05:36:33;;;;;;;17.83;16.23;;;;;;;13.26;100.00;101039.66;5010361;28;20052;-79
2023/07/21 05:38:58;;;;;;;17.80;16.10;;;;;;;13.30;100.00;101035.81;5027064;28;20484;-78
2023/07/21 05:41:24;;;;;;;17.65;16.15;;;;;;;13.45;100.00;101039.81;5031613;28;20060;-78
2023/07/21 05:43:49;;;;;;;17.98;16.48;;;;;;;13.51;100.00;101034.00;5012905;28;20025;-78
2023/07/21 05:46:15;;;;;;;17.02;15.43;;;;;;;13.63;100.00;101033.00;5016532;28;20018;-78
2023/07/21 05:48:41;;;;;;;16.85;15.35;;;;;;;13.71;100.00;101035.00;5003577;28;20037;-79
2023/07/21 05:51:12;;;;;;;16.38;14.95;;;;;;;13.84;100.00;101040.09;4993514;28;20030;-85
2023/07/21 05:53:37;;;;;;;17.23;15.60;;;;;;;13.93;100.00;101040.13;4994202;28;20475;-85
2023/07/21 05:56:06;;;;;;;16.35;14.85;;;;;;;14.05;100.00;101041.75;5027216;28;20032;-84
2023/07/21 05:58:31;;;;;;;17.05;15.55;;;;;;;14.09;100.00;101043.19;5012961;28;20474;-84
2023/07/21 06:00:57;;;;;;;16.80;15.15;;;;;;;14.19;99.62;101048.50;5031228;28;20056;-85
2023/07/21 06:03:22;;;;;;;16.73;15.23;;;;;;;14.27;99.88;101043.38;5012823;28;20034;-84
2023/07/21 06:05:51;;;;;;;17.13;15.50;;;;;;;14.30;99.97;101042.28;5010816;28;20054;-85
2023/07/21 06:08:24;;;;;;;15.68;14.25;;;;;;;14.39;99.25;101038.84;5011274;28;20032;-85
2023/07/21 06:10:51;;;;;;;16.75;15.20;;;;;;;14.47;99.21;101044.34;5010917;28;20028;-85
2023/07/21 06:13:16;;;;;;;17.08;15.32;;;;;;;14.53;98.64;101038.53;5028758;28;20071;-85
2023/07/21 06:15:41;;;;;;;16.27;14.77;;;;;;;14.60;98.68;101038.81;5031529;28;20030;-86
2023/07/21 06:18:10;;;;;;;16.08;14.55;;;;;;;14.70;98.24;101040.50;5010994;28;20021;-86
2023/07/21 06:20:35;;;;;;;16.00;14.52;;;;;;;14.76;97.93;101031.19;5016394;28;20026;-85
2023/07/21 06:23:01;;;;;;;15.63;14.10;;;;;;;14.89;96.36;101037.09;5011377;28;20348;-84
2023/07/21 06:25:26;;;;;;;14.98;13.63;;;;;;;14.97;96.65;101037.25;5014240;28;20112;-85
2023/07/21 06:27:52;;;;;;;15.32;13.82;;;;;;;15.11;95.85;101032.50;5017936;28;20029;-85
2023/07/21 06:30:17;;;;;;;19.90;15.13;;;;;;;15.14;94.00;101034.88;5030652;28;20045;-85
2023/07/21 06:32:43;;;;;;;15.60;14.20;;;;;;;15.19;94.33;101041.44;5030648;28;20678;-86
2023/07/21 06:35:09;;;;;;;15.88;14.45;;;;;;;15.31;96.23;101036.84;5026574;28;20104;-85
2023/07/21 06:37:37;;;;;;;16.20;14.65;;;;;;;15.41;94.63;101037.69;5010481;28;20025;-84
2023/07/21 06:40:05;;;;;;;15.57;14.02;;;;;;;15.50;94.50;101038.66;5009175;28;20026;-85
2023/07/21 06:42:31;;;;;;;15.48;13.88;;;;;;;15.61;94.22;101038.56;5025870;28;20044;-84
2023/07/21 06:44:56;;;;;;;16.88;14.98;;;;;;;15.69;93.20;101035.19;5030665;28;20033;-84
2023/07/21 06:47:21;;;;;;;17.70;15.50;;;;;;;15.76;91.96;101031.81;5011898;28;20456;-84
2023/07/21 06:49:47;;;;;;;16.40;14.77;;;;;;;15.79;91.12;101028.06;5012325;28;20049;-84
2023/07/21 06:52:12;;;;;;;16.38;14.85;;;;;;;15.93;90.83;101030.25;5010595;28;20032;-85
2023/07/21 06:54:38;;;;;;;16.70;15.18;;;;;;;16.04;89.77;101037.22;5008731;28;20418;-84
2023/07/21 06:57:05;;;;;;;15.65;14.25;;;;;;;16.12;89.62;101035.50;5026497;28;20022;-84
2023/07/21 06:59:30;;;;;;;16.40;14.80;;;;;;;16.21;88.52;101029.31;5012202;28;20128;-84
2023/07/21 07:01:57;;;;;;;16.20;14.65;;;;;;;16.41;88.27;101026.56;5011524;28;20485;-84
2023/07/21 07:04:23;;;;;;;15.88;14.27;;;;;;;16.53;88.84;101022.78;5030167;28;20025;-84
2023/07/21 07:06:48;;;;;;;16.30;14.73;;;;;;;16.60;87.29;101030.00;5011924;28;20087;-85
2023/07/21 07:09:14;;;;;;;15.80;14.32;;;;;;;16.69;86.94;101022.97;5007014;28;20202;-85
2023/07/21 07:11:40;;;;;;;15.52;14.07;;;;;;;16.85;85.90;101023.19;4992700;28;20478;-85
2023/07/21 07:14:05;;;;;;;14.93;13.38;;;;;;;16.96;85.08;101022.13;5009508;28;20032;-84
2023/07/21 07:16:33;;;;;;;16.17;14.57;;;;;;;17.15;85.33;101018.47;4992507;28;20041;-84
2023/07/21 07:18:59;;;;;;;16.23;14.73;;;;;;;17.31;84.08;101018.66;4992366;28;20061;-77
2023/07/21 07:21:24;;;;;;;16.60;15.07;;;;;;;17.58;83.09;101009.69;5009252;28;20452;-77
2023/07/21 07:23:50;;;;;;;17.48;15.05;;;;;;;17.80;81.03;101008.41;4992447;28;20030;-76
2023/07/21 07:26:19;;;;;;;20.25;14.23;;;;;;;18.17;79.62;101011.63;5012019;28;20030;-76
2023/07/21 07:28:45;;;;;;;17.00;14.38;;;;;;;18.33;77.08;101004.69;5019380;28;20033;-77
2023/07/21 07:31:10;;;;;;;16.08;14.52;;;;;;;18.48;77.11;101008.44;5011896;28;20493;-77
2023/07/21 07:33:35;;;;;;;15.65;14.15;;;;;;;18.86;75.51;101014.25;5012577;28;20039;-77
2023/07/21 07:36:01;;;;;;;15.80;13.65;;;;;;;19.07;74.30;101009.28;5011539;28;20032;-77
2023/07/21 07:38:32;;;;;;;16.75;13.40;;;;;;;19.38;73.85;101012.16;5030232;28;20211;-76
2023/07/21 07:41:12;;;;;;;16.08;14.35;;;;;;;19.27;72.99;101021.34;5025883;28;20071;-79
2023/07/21 07:43:39;;;;;;;14.85;13.30;;;;;;;19.43;71.12;101028.50;5009829;28;20398;-76
2023/07/21 07:46:07;;;;;;;14.90;13.20;;;;;;;19.54;70.83;101022.03;5008738;28;20113;-77
2023/07/21 07:48:33;;;;;;;14.15;12.93;;;;;;;19.76;70.20;101029.34;4984511;28;20509;-76
2023/07/21 07:51:02;;;;;;;13.98;12.60;;;;;;;19.96;69.28;101021.81;5009427;28;20025;-77
2023/07/21 07:53:28;;;;;;;14.55;13.18;;;;;;;19.90;67.38;101020.66;5009788;28;20490;-78
2023/07/21 07:55:57;;;;;;;13.00;11.60;;;;;;;19.87;67.65;101023.66;4995482;28;20026;-78
2023/07/21 07:58:22;;;;;;;12.63;11.32;;;;;;;19.96;67.49;101021.81;4994549;28;20132;-77
2023/07/21 08:00:48;;;;;;;11.75;10.55;;;;;;;19.91;65.17;101033.00;4983609;28;20156;-77
2023/07/21 08:03:14;;;;;;;13.25;10.68;;;;;;;19.90;64.55;101028.66;4987895;28;20038;-77
2023/07/21 08:05:40;;;;;;;12.25;10.95;;;;;;;19.86;65.88;101024.66;4990968;28;20022;-78
2023/07/21 08:08:07;;;;;;;12.90;11.68;;;;;;;19.83;65.56;101022.34;5010612;28;20030;-77
2023/07/21 08:10:34;;;;;;;12.90;11.63;;;;;;;19.89;65.35;101015.47;5012870;28;20412;-77
2023/07/21 08:13:04;;;;;;;17.58;12.10;;;;;;;19.89;65.64;101021.66;5011987;28;20033;-77
2023/07/21 08:15:29;;;;;;;11.88;10.70;;;;;;;20.02;67.68;101016.63;5016410;28;20484;-77
2023/07/21 08:17:55;;;;;;;13.90;12.23;;;;;;;20.21;65.48;101019.91;5012679;28;20025;-76
2023/07/21 08:20:24;;;;;;;14.48;12.98;;;;;;;20.17;64.64;101021.25;5011714;28;20022;-77
2023/07/21 08:22:52;;;;;;;13.65;12.30;;;;;;;20.17;63.88;101018.59;5013085;28;20505;-77
2023/07/21 08:25:25;;;;;;;13.93;12.52;;;;;;;20.36;66.19;101015.50;5012443;28;20030;-77
2023/07/21 08:27:54;;;;;;;14.32;12.93;;;;;;;20.48;64.17;101003.47;5016853;28;20026;-77
2023/07/21 08:30:19;;;;;;;14.48;12.98;;;;;;;20.58;65.12;101008.59;5032629;28;20106;-78
2023/07/21 08:32:45;;;;;;;16.02;14.30;;;;;;;20.53;63.07;101008.31;5000591;28;20145;-77
2023/07/21 08:35:10;;;;;;;15.80;14.13;;;;;;;20.61;64.49;101009.09;5012844;28;20119;-78
2023/07/21 08:37:37;;;;;;;17.65;15.48;;;;;;;20.50;64.96;101014.84;5013195;28;20030;-78
2023/07/21 08:40:09;;;;;;;17.83;15.93;;;;;;;20.35;65.76;101016.50;5012178;28;20032;-78
2023/07/21 08:42:36;;;;;;;17.42;15.80;;;;;;;20.51;65.73;101004.97;5011778;28;20034;-78
2023/07/21 08:45:10;;;;;;;17.52;15.60;;;;;;;20.75;65.35;101012.84;5011206;28;20537;-78
2023/07/21 08:47:35;;;;;;;16.50;13.52;;;;;;;20.98;63.87;101010.22;5004487;28;20030;-78
2023/07/21 08:50:03;;;;;;;17.48;15.57;;;;;;;21.14;59.92;101012.78;5016306;28;20199;-75
2023/07/21 08:52:31;;;;;;;15.27;13.77;;;;;;;21.36;61.28;101010.31;5011070;28;20137;-78
2023/07/21 08:54:56;;;;;;;12.40;11.15;;;;;;;21.46;61.14;101021.59;4995146;28;20026;-77
2023/07/21 08:57:22;;;;;;;11.48;10.27;;;;;;;21.30;59.34;101019.06;5030399;28;20120;-77
2023/07/21 08:59:49;;;;;;;12.52;11.27;;;;;;;21.21;59.97;101021.78;5032044;28;20029;-76
2023/07/21 09:02:15;;;;;;;12.40;11.20;;;;;;;21.22;61.05;101019.94;5032389;28;20128;-77
2023/07/21 09:04:43;;;;;;;15.27;13.73;;;;;;;21.15;59.63;101018.97;5032868;28;20104;-77
2023/07/21 09:07:11;;;;;;;13.55;12.35;;;;;;;20.99;59.54;101011.88;5015204;28;20034;-77
2023/07/21 09:09:36;;;;;;;15.30;13.73;;;;;;;21.13;58.80;101016.47;5012956;28;20560;-77
2023/07/21 09:12:07;;;;;;;14.35;12.95;;;;;;;21.15;60.92;101017.13;5012540;28;20041;-77
2023/07/21 09:14:40;;;;;;;16.20;13.90;;;;;;;21.10;59.81;101016.00;4994932;28;20075;-76
2023/07/21 09:17:08;;;;;;;17.48;15.52;;;;;;;21.34;58.78;101017.69;5011166;28;20040;-77
2023/07/21 09:19:39;;;;;;;18.55;16.75;;;;;;;21.72;58.97;101011.34;5011210;28;20084;-76
2023/07/21 09:22:04;;;;;;;19.17;17.33;;;;;;;22.14;56.78;101020.66;5012895;28;20529;-77
2023/07/21 09:24:30;;;;;;;19.67;17.75;;;;;;;22.31;56.38;101006.03;5002549;28;20025;-77
2023/07/21 09:27:13;;;;;;;21.38;18.98;;;;;;;22.64;57.22;100995.72;5031718;28;20666;-78
2023/07/21 09:29:39;;;;;;;17.75;16.15;;;;;;;23.12;55.35;100993.38;5013267;28;20116;-78
2023/07/21 09:32:16;;;;;;;20.35;18.25;;;;;;;23.33;52.73;101005.97;5013786;28;20051;-78
2023/07/21 09:35:11;;;;;;;18.45;16.13;;;;;;;23.69;54.47;101001.34;5013076;28;20048;-77
2023/07/21 09:37:38;;;;;;;20.83;18.63;;;;;;;23.30;49.07;100990.25;5005438;28;20462;-78
2023/07/21 09:40:13;;;;;;;19.15;17.15;;;;;;;23.23;49.57;100995.56;5031421;28;20108;-77
2023/07/21 09:42:39;;;;;;;20.30;18.30;;;;;;;23.36;50.94;100995.69;5013068;28;20029;-77
2023/07/21 09:45:05;;;;;;;19.35;17.30;;;;;;;23.41;50.30;100987.88;5031350;28;20024;-77
2023/07/21 09:47:37;;;;;;;17.30;15.68;;;;;;;23.79;49.55;100978.69;5031135;28;20029;-76
2023/07/21 09:50:03;;;;;;;17.30;15.53;;;;;;;23.96;47.24;100977.31;5030713;28;20083;-76
2023/07/21 09:52:37;;;;;;;16.90;15.30;;;;;;;23.68;48.96;100975.50;5013244;28;20022;-76
2023/07/21 09:55:13;;;;;;;17.27;15.60;;;;;;;23.85;49.64;100975.19;5015564;28;20121;-76
2023/07/21 09:57:45;;;;;;;18.25;13.93;;;;;;;24.29;48.84;100974.84;4993462;28;20030;-76
2023/07/21 10:00:13;;;;;;;16.37;14.80;;;;;;;24.16;48.42;100975.59;5011251;28;20430;-76
2023/07/21 10:02:45;;;;;;;15.02;13.50;;;;;;;23.74;45.92;100979.28;5011392;28;20021;-76
2023/07/21 10:05:10;;;;;;;14.83;12.87;;;;;;;23.35;49.42;100979.75;5011634;28;20125;-76
2023/07/21 10:07:47;;;;;;;14.45;12.95;;;;;;;23.02;51.79;100988.31;5011954;28;20681;-77
2023/07/21 10:10:13;;;;;;;11.70;10.57;;;;;;;22.82;50.47;100981.94;5014225;28;20379;-76
2023/07/21 10:12:50;;;;;;;13.38;12.15;;;;;;;22.47;53.27;100984.41;5022516;28;20417;-75
2023/07/21 10:15:21;;;;;;;16.20;14.40;;;;;;;22.13;56.46;100992.19;5031185;28;20034;-75
2023/07/21 10:18:05;;;;;;;16.90;15.20;;;;;;;21.91;61.82;100999.25;5012724;28;20436;-75
2023/07/21 10:20:49;;;;;;;19.40;17.42;;;;;;;21.49;64.63;100995.31;5031010;28;20021;-76
2023/07/21 10:23:17;;;;;;;20.63;18.63;;;;;;;21.11;66.77;100997.06;5030842;28;20036;-75
2023/07/21 10:26:09;;;;;;;20.77;18.73;;;;;;;21.00;68.16;100994.00;5018941;28;20040;-77
2023/07/21 10:28:35;;;;;;;22.83;20.63;;;;;;;20.48;72.56;100994.63;5013311;28;20034;-76
2023/07/21 10:34:06;;;;;;;24.77;20.50;;;;;;;20.34;76.27;101013.00;5030468;28;20116;-76
2023/07/21 10:36:53;;;;;;;34.67;24.00;;;;;;;20.09;78.78;101034.66;5030337;28;20044;-75
2023/07/21 10:39:29;;;;;;;28.85;22.95;;;;;;;19.54;82.75;101038.88;5029505;28;20527;-72
2023/07/21 10:42:00;;;;;;;28.75;23.15;;;;;;;19.04;83.56;101022.94;5017374;28;20116;-74
2023/07/21 10:44:52;;;;;;;25.70;22.63;;;;;;;18.95;84.23;101023.94;5010374;28;20109;-71
2023/07/21 10:47:19;;;;;;;25.92;23.38;;;;;;;18.60;86.73;101028.47;4998968;28;20046;-73
2023/07/21 10:49:46;;;;;;;25.75;23.25;;;;;;;18.41;85.86;101021.56;4992229;28;20037;-73
2023/07/21 10:52:12;;;;;;;26.73;24.13;;;;;;;18.32;87.63;101024.34;4991916;28;20580;-73
2023/07/21 10:54:38;;;;;;;28.13;25.52;;;;;;;18.14;90.65;101033.25;5010600;28;20104;-72
2023/07/21 10:57:04;;;;;;;29.55;26.50;;;;;;;18.06;90.58;101041.19;5026517;28;20386;-72
2023/07/21 10:59:34;;;;;;;22.65;19.98;;;;;;;17.85;89.64;101044.22;5013254;28;20053;-72
2023/07/21 11:02:02;;;;;;;15.70;13.88;;;;;;;17.73;88.05;101040.13;5010085;28;20054;-72
2023/07/21 11:04:27;;;;;;;12.57;10.40;;;;;;;17.45;87.83;101042.03;5010276;28;20033;-72
2023/07/21 11:06:55;;;;;;;10.93;9.82;;;;;;;17.24;88.47;101049.50;5010101;28;20026;-72
2023/07/21 11:09:21;;;;;;;10.02;9.02;;;;;;;17.07;89.71;101043.16;5010521;28;20055;-72
2023/07/21 11:11:51;;;;;;;10.93;9.30;;;;;;;16.92;90.99;101060.63;5010570;28;20053;-72
2023/07/21 11:14:25;;;;;;;11.30;10.20;;;;;;;16.87;94.36;101057.59;5012863;28;20083;-72
2023/07/21 11:16:56;;;;;;;10.75;9.80;;;;;;;16.83;92.70;101067.69;5019842;28;20033;-73